createdAt,value
2022-12-18T00:01:21.098Z,26.73
2022-12-18T00:03:49.458Z,25.88
2022-12-18T00:06:18.045Z,24.52
2022-12-18T00:08:46.631Z,26.42
2022-12-18T00:11:21.283Z,25.73
2022-12-18T00:13:49.501Z,26.85
2022-12-18T00:16:19.539Z,27.45
2022-12-18T00:18:49.975Z,26.65
2022-12-18T00:21:20.222Z,25.70
2022-12-18T00:23:49.217Z,24.85
2022-12-18T00:26:21.621Z,27.40
2022-12-18T00:28:49.946Z,26.63
2022-12-18T00:31:19.431Z,26.70
2022-12-18T00:33:47.870Z,26.90
2022-12-18T00:36:19.819Z,25.05
2022-12-18T00:38:48.388Z,24.55
2022-12-18T00:41:39.524Z,26.00
2022-12-18T00:44:08.140Z,26.33
2022-12-18T00:46:36.123Z,26.40
2022-12-18T00:49:04.183Z,24.38
2022-12-18T00:51:32.529Z,25.60
2022-12-18T00:54:01.887Z,27.65
2022-12-18T00:56:30.989Z,23.83
2022-12-18T00:58:58.692Z,25.63
2022-12-18T01:01:27.028Z,25.83
2022-12-18T01:03:54.824Z,26.23
2022-12-18T01:06:22.597Z,25.30
2022-12-18T01:08:50.538Z,25.70
2022-12-18T01:11:20.759Z,27.02
2022-12-18T01:13:50.058Z,25.10
2022-12-18T01:16:19.411Z,25.50
2022-12-18T01:18:47.354Z,24.45
2022-12-18T01:21:17.356Z,26.30
2022-12-18T01:23:45.083Z,25.95
2022-12-18T01:26:15.040Z,25.10
2022-12-18T01:28:43.372Z,24.83
2022-12-18T01:31:14.173Z,26.27
2022-12-18T01:33:42.468Z,24.98
2022-12-18T01:36:11.011Z,25.23
2022-12-18T01:38:38.742Z,22.20
2022-12-18T01:41:06.463Z,25.13
2022-12-18T01:43:49.035Z,24.98
2022-12-18T01:46:19.709Z,22.88
2022-12-18T01:48:50.298Z,24.05
2022-12-18T01:51:18.163Z,24.70
2022-12-18T01:53:47.129Z,24.77
2022-12-18T01:56:16.623Z,22.27
2022-12-18T01:58:53.032Z,25.02
2022-12-18T02:01:23.722Z,25.85
2022-12-18T02:03:52.243Z,24.80
2022-12-18T02:06:25.221Z,23.58
2022-12-18T02:11:40.640Z,22.58
2022-12-18T02:14:20.064Z,22.52
2022-12-18T02:16:54.921Z,27.83
2022-12-18T02:20:00.605Z,23.70
2022-12-18T02:22:34.604Z,24.35
2022-12-18T02:25:14.158Z,24.80
2022-12-18T02:27:45.617Z,39.58
2022-12-18T02:30:14.272Z,27.80
2022-12-18T02:32:46.411Z,25.75
2022-12-18T02:35:17.597Z,25.85
2022-12-18T02:37:47.982Z,25.40
2022-12-18T02:40:18.607Z,23.70
2022-12-18T02:42:47.757Z,23.25
2022-12-18T02:45:15.680Z,22.52
2022-12-18T02:47:48.032Z,23.85
2022-12-18T02:50:20.915Z,25.13
2022-12-18T02:52:58.547Z,23.70
2022-12-18T02:55:34.870Z,23.88
2022-12-18T02:58:07.793Z,24.63
2022-12-18T03:03:10.697Z,23.15
2022-12-18T03:05:43.426Z,23.52
2022-12-18T03:08:16.697Z,24.55
2022-12-18T03:10:51.966Z,24.60
2022-12-18T03:13:24.910Z,23.52
2022-12-18T03:18:27.033Z,24.00
2022-12-18T03:21:00.864Z,26.40
2022-12-18T03:23:34.387Z,22.98
2022-12-18T03:26:08.994Z,24.38
2022-12-18T03:28:41.645Z,22.90
2022-12-18T03:31:12.169Z,25.35
2022-12-18T03:33:44.369Z,25.80
2022-12-18T03:36:12.256Z,24.63
2022-12-18T03:38:40.288Z,24.17
2022-12-18T03:41:17.705Z,26.80
2022-12-18T03:43:53.110Z,24.25
2022-12-18T03:46:30.118Z,22.70
2022-12-18T03:49:03.298Z,24.23
2022-12-18T03:51:39.583Z,24.88
2022-12-18T03:54:10.149Z,23.73
2022-12-18T03:56:41.503Z,24.23
2022-12-18T03:59:13.618Z,23.65
2022-12-18T04:01:45.195Z,25.60
2022-12-18T04:04:14.698Z,23.85
2022-12-18T04:06:43.971Z,22.42
2022-12-18T04:09:12.129Z,22.38
2022-12-18T04:11:39.849Z,21.48
2022-12-18T04:14:07.764Z,21.80
2022-12-18T04:16:37.322Z,24.85
2022-12-18T04:19:06.960Z,24.02
2022-12-18T04:21:35.164Z,25.40
2022-12-18T04:24:02.905Z,24.42
2022-12-18T04:26:30.576Z,22.85
2022-12-18T04:28:58.306Z,24.08
2022-12-18T04:31:26.202Z,22.25
2022-12-18T04:33:55.461Z,23.50
2022-12-18T04:36:23.263Z,23.00
2022-12-18T04:38:51.067Z,23.17
2022-12-18T04:41:18.951Z,20.73
2022-12-18T04:43:46.684Z,21.48
2022-12-18T04:46:14.635Z,19.92
2022-12-18T04:48:42.600Z,18.33
2022-12-18T04:51:11.734Z,20.00
2022-12-18T04:53:39.782Z,20.33
2022-12-18T04:56:08.822Z,20.80
2022-12-18T04:58:37.076Z,18.65
2022-12-18T05:01:05.361Z,20.90
2022-12-18T05:03:33.560Z,20.58
2022-12-18T05:06:01.856Z,22.08
2022-12-18T05:08:31.028Z,20.00
2022-12-18T05:11:02.057Z,20.33
2022-12-18T05:13:29.857Z,18.50
2022-12-18T05:15:57.955Z,21.33
2022-12-18T05:18:26.386Z,22.77
2022-12-18T05:20:55.052Z,20.60
2022-12-18T05:23:24.090Z,22.02
2022-12-18T05:25:55.189Z,20.35
2022-12-18T05:28:23.854Z,19.77
2022-12-18T05:30:51.930Z,21.83
2022-12-18T05:33:19.827Z,20.10
2022-12-18T05:35:52.835Z,20.42
2022-12-18T05:40:49.405Z,20.70
2022-12-18T05:43:21.362Z,21.83
2022-12-18T05:45:49.901Z,21.00
2022-12-18T05:48:18.304Z,19.00
2022-12-18T05:50:47.798Z,20.05
2022-12-18T05:53:17.273Z,22.77
2022-12-18T05:55:45.924Z,21.08
2022-12-18T05:58:15.316Z,20.33
2022-12-18T06:00:46.408Z,20.45
2022-12-18T06:03:15.602Z,20.35
2022-12-18T06:05:45.451Z,20.02
2022-12-18T06:08:14.002Z,15.50
2022-12-18T06:10:41.912Z,18.63
2022-12-18T06:13:10.037Z,20.05
2022-12-18T06:15:38.806Z,19.10
2022-12-18T06:18:07.865Z,19.67
2022-12-18T06:20:37.510Z,15.95
2022-12-18T06:23:05.347Z,18.38
2022-12-18T06:25:33.242Z,19.02
2022-12-18T06:28:00.918Z,16.80
2022-12-18T06:30:28.602Z,17.65
2022-12-18T06:32:57.091Z,20.23
2022-12-18T06:35:26.135Z,19.50
2022-12-18T06:37:53.796Z,21.33
2022-12-18T06:40:21.681Z,20.17
2022-12-18T06:42:49.305Z,19.42
2022-12-18T06:45:18.384Z,18.02
2022-12-18T06:47:46.027Z,21.75
2022-12-18T06:50:14.859Z,20.85
2022-12-18T06:52:44.951Z,19.45
2022-12-18T06:55:13.222Z,21.30
2022-12-18T06:57:40.877Z,22.88
2022-12-18T07:00:09.670Z,20.58
2022-12-18T07:02:37.729Z,20.50
2022-12-18T07:05:10.509Z,20.52
2022-12-18T07:07:38.770Z,19.02
2022-12-18T07:10:08.484Z,17.98
2022-12-18T07:12:36.118Z,18.17
2022-12-18T07:15:04.567Z,20.30
2022-12-18T07:17:32.182Z,20.05
2022-12-18T07:20:00.076Z,20.60
2022-12-18T07:22:27.949Z,20.80
2022-12-18T07:24:56.289Z,19.55
2022-12-18T07:27:25.420Z,20.98
2022-12-18T07:29:53.073Z,19.25
2022-12-18T07:32:20.800Z,19.85
2022-12-18T07:34:57.650Z,20.45
2022-12-18T07:37:28.136Z,19.80
2022-12-18T07:40:06.301Z,16.58
2022-12-18T07:42:36.229Z,18.80
2022-12-18T07:45:04.843Z,18.85
2022-12-18T07:47:32.540Z,20.98
2022-12-18T07:50:00.262Z,19.65
2022-12-18T07:52:29.954Z,18.80
2022-12-18T07:54:57.642Z,18.67
2022-12-18T07:57:49.546Z,18.83
2022-12-18T08:00:18.206Z,19.63
2022-12-18T08:02:46.088Z,17.40
2022-12-18T08:05:14.247Z,18.65
2022-12-18T08:07:42.001Z,18.00
2022-12-18T08:10:31.410Z,18.23
2022-12-18T08:13:04.718Z,18.25
2022-12-18T08:15:34.145Z,16.58
2022-12-18T08:18:01.895Z,17.83
2022-12-18T08:20:29.588Z,18.77
2022-12-18T08:22:58.946Z,18.77
2022-12-18T08:25:26.698Z,17.00
2022-12-18T08:27:54.750Z,20.25
2022-12-18T08:30:22.807Z,18.73
2022-12-18T08:32:55.018Z,17.63
2022-12-18T08:35:22.812Z,20.83
2022-12-18T08:37:50.521Z,19.33
2022-12-18T08:40:18.400Z,20.83
2022-12-18T08:43:03.419Z,21.55
2022-12-18T08:45:31.311Z,19.65
2022-12-18T08:48:01.699Z,20.08
2022-12-18T08:50:29.825Z,22.90
2022-12-18T08:52:57.485Z,23.80
2022-12-18T08:55:25.886Z,21.10
2022-12-18T08:57:53.513Z,20.15
2022-12-18T09:00:21.326Z,20.15
2022-12-18T09:02:52.421Z,19.05
2022-12-18T09:05:24.002Z,20.70
2022-12-18T09:07:51.722Z,21.02
2022-12-18T09:10:19.393Z,20.05
2022-12-18T09:12:50.415Z,17.95
2022-12-18T09:15:21.541Z,19.30
2022-12-18T09:17:53.876Z,21.27
2022-12-18T09:20:29.289Z,19.80
2022-12-18T09:22:57.000Z,20.73
2022-12-18T09:25:24.704Z,21.08
2022-12-18T09:27:53.015Z,21.38
2022-12-18T09:30:23.603Z,21.95
2022-12-18T09:32:54.031Z,23.23
2022-12-18T09:35:23.238Z,22.50
2022-12-18T09:37:53.059Z,23.15
2022-12-18T09:40:24.673Z,21.05
2022-12-18T09:42:55.981Z,19.92
2022-12-18T09:45:28.481Z,21.10
2022-12-18T09:47:59.598Z,23.10
2022-12-18T09:50:36.995Z,22.60
2022-12-18T09:53:15.215Z,24.00
2022-12-18T09:55:49.599Z,20.58
2022-12-18T09:58:23.972Z,20.55
2022-12-18T10:00:56.706Z,21.83
2022-12-18T10:03:24.625Z,20.35
2022-12-18T10:06:03.940Z,22.55
2022-12-18T10:08:44.385Z,22.80
2022-12-18T10:11:33.442Z,23.70
2022-12-18T10:14:08.532Z,21.95
2022-12-18T10:16:43.080Z,18.65
2022-12-18T10:19:22.348Z,23.98
2022-12-18T10:22:00.488Z,24.83
2022-12-18T10:24:34.889Z,21.50
2022-12-18T10:27:15.762Z,21.70
2022-12-18T10:29:44.578Z,20.65
2022-12-18T10:32:17.066Z,22.83
2022-12-18T10:34:48.045Z,24.90
2022-12-18T10:37:20.391Z,24.38
2022-12-18T10:39:48.990Z,21.02
2022-12-18T10:42:20.845Z,22.10
2022-12-18T10:45:02.629Z,21.98
2022-12-18T10:47:30.698Z,21.98
2022-12-18T10:49:58.866Z,22.15
2022-12-18T10:52:29.478Z,23.65
2022-12-18T10:55:00.148Z,23.60
2022-12-18T10:57:34.250Z,25.38
2022-12-18T11:00:22.819Z,23.83
2022-12-18T11:02:50.717Z,19.63
2022-12-18T11:05:30.968Z,19.90
2022-12-18T11:08:00.672Z,22.67
2022-12-18T11:10:32.584Z,22.10
2022-12-18T11:13:13.480Z,22.95
2022-12-18T11:15:43.235Z,22.20
2022-12-18T11:18:19.972Z,21.40
2022-12-18T11:20:58.330Z,23.85
2022-12-18T11:23:28.769Z,20.13
2022-12-18T11:25:59.272Z,22.60
2022-12-18T11:28:30.364Z,20.80
2022-12-18T11:31:23.347Z,20.88
2022-12-18T11:34:27.572Z,17.70
2022-12-18T11:36:47.899Z,21.92
2022-12-18T11:39:20.178Z,21.90
2022-12-18T11:42:13.779Z,20.80
2022-12-18T11:44:48.845Z,23.02
2022-12-18T11:47:22.348Z,22.40
2022-12-18T11:49:52.039Z,21.17
2022-12-18T11:52:23.312Z,21.75
2022-12-18T11:54:54.957Z,21.15
2022-12-18T11:57:35.192Z,20.10
2022-12-18T12:00:10.098Z,20.80
2022-12-18T12:03:09.072Z,19.60
2022-12-18T12:05:46.828Z,20.25
2022-12-18T12:08:21.246Z,23.05
2022-12-18T12:10:59.750Z,20.48
2022-12-18T12:13:40.872Z,20.23
2022-12-18T12:16:19.018Z,20.83
2022-12-18T12:18:57.935Z,21.23
2022-12-18T12:21:35.260Z,22.38
2022-12-18T12:24:14.793Z,22.10
2022-12-18T12:26:50.385Z,22.50
2022-12-18T12:29:31.837Z,21.98
2022-12-18T12:32:18.709Z,22.17
2022-12-18T12:35:00.982Z,20.75
2022-12-18T12:37:39.814Z,22.85
2022-12-18T12:40:49.087Z,20.38
2022-12-18T12:43:23.572Z,24.45
2022-12-18T12:45:56.699Z,35.70
2022-12-18T12:48:44.812Z,23.02
2022-12-18T12:51:18.246Z,20.13
2022-12-18T12:53:46.884Z,21.90
2022-12-18T12:56:17.035Z,21.77
2022-12-18T12:58:57.043Z,28.95
2022-12-18T13:01:34.630Z,21.88
2022-12-18T13:04:10.789Z,23.63
2022-12-18T13:06:46.723Z,21.50
2022-12-18T13:09:15.126Z,21.60
2022-12-18T13:12:04.172Z,21.85
2022-12-18T13:14:35.851Z,21.50
2022-12-18T13:17:31.900Z,22.13
2022-12-18T13:20:17.340Z,22.70
2022-12-18T13:22:47.193Z,21.92
2022-12-18T13:25:36.066Z,23.70
2022-12-18T13:28:26.869Z,20.23
2022-12-18T13:31:00.746Z,22.65
2022-12-18T13:36:37.264Z,21.45
2022-12-18T13:39:36.694Z,26.15
2022-12-18T13:43:01.603Z,22.23
2022-12-18T13:45:43.268Z,24.20
2022-12-18T13:48:23.073Z,21.33
2022-12-18T13:50:55.514Z,21.70
2022-12-18T13:53:26.432Z,23.40
2022-12-18T13:55:55.443Z,21.43
2022-12-18T13:58:23.215Z,22.80
2022-12-18T14:00:51.029Z,23.23
2022-12-18T14:03:25.215Z,26.13
2022-12-18T14:06:00.777Z,22.77
2022-12-18T14:08:35.223Z,21.08
2022-12-18T14:11:04.156Z,21.67
2022-12-18T14:13:36.024Z,22.35
2022-12-18T14:16:09.420Z,21.92
2022-12-18T14:18:47.240Z,22.90
2022-12-18T14:21:22.312Z,23.35
2022-12-18T14:23:50.233Z,22.90
2022-12-18T14:26:31.529Z,22.67
2022-12-18T14:29:02.036Z,22.30
2022-12-18T14:31:31.613Z,23.02
2022-12-18T14:34:00.626Z,22.83
2022-12-18T14:36:29.798Z,23.02
2022-12-18T14:38:59.289Z,21.60
2022-12-18T14:41:28.845Z,24.35
2022-12-18T14:43:56.975Z,23.33
2022-12-18T14:46:33.704Z,24.00
2022-12-18T14:49:05.189Z,23.50
2022-12-18T14:51:35.180Z,26.80
2022-12-18T14:54:04.765Z,24.15
2022-12-18T14:56:34.499Z,23.95
2022-12-18T14:59:04.315Z,24.77
2022-12-18T15:01:34.781Z,22.00
2022-12-18T15:04:05.493Z,25.02
2022-12-18T15:06:37.202Z,24.10
2022-12-18T15:09:08.377Z,39.63
2022-12-18T15:11:48.196Z,24.67
2022-12-18T15:14:32.158Z,23.80
2022-12-18T15:17:01.192Z,24.15
2022-12-18T15:19:37.748Z,39.78
2022-12-18T15:22:06.737Z,29.00
2022-12-18T15:24:49.836Z,24.17
2022-12-18T15:27:30.079Z,24.35
2022-12-18T15:30:19.008Z,25.38
2022-12-18T15:32:47.596Z,32.15
2022-12-18T15:35:21.646Z,27.23
2022-12-18T15:37:49.738Z,27.17
2022-12-18T15:40:18.446Z,25.30
2022-12-18T15:43:06.202Z,26.15
2022-12-18T15:45:34.091Z,25.40
2022-12-18T15:48:02.001Z,25.17
2022-12-18T15:50:33.322Z,31.15
2022-12-18T15:53:01.439Z,27.92
2022-12-18T15:55:47.396Z,38.67
2022-12-18T15:58:16.297Z,27.38
2022-12-18T16:00:44.243Z,27.52
2022-12-18T16:03:14.925Z,33.00
2022-12-18T16:05:54.344Z,28.77
2022-12-18T16:08:22.287Z,25.05
2022-12-18T16:10:50.230Z,27.80
2022-12-18T16:13:21.389Z,24.45
2022-12-18T16:15:52.471Z,25.67
2022-12-18T16:18:20.278Z,28.30
2022-12-18T16:20:49.434Z,25.95
2022-12-18T16:23:17.147Z,30.40
2022-12-18T16:25:44.971Z,29.40
2022-12-18T16:28:12.800Z,26.42
2022-12-18T16:30:41.297Z,28.90
2022-12-18T16:33:12.958Z,27.40
2022-12-18T16:35:40.552Z,29.73
2022-12-18T16:38:09.584Z,27.50
2022-12-18T16:41:01.746Z,26.58
2022-12-18T16:43:29.429Z,28.50
2022-12-18T16:45:58.276Z,27.25
2022-12-18T16:48:26.747Z,28.77
2022-12-18T16:51:02.820Z,30.38
2022-12-18T16:53:35.026Z,31.02
2022-12-18T16:56:03.490Z,29.60
2022-12-18T16:58:32.729Z,28.33
2022-12-18T17:01:00.486Z,28.17
2022-12-18T17:03:31.815Z,26.10
2022-12-18T17:06:03.962Z,27.98
2022-12-18T17:08:33.306Z,27.60
2022-12-18T17:11:08.227Z,28.38
2022-12-18T17:13:36.083Z,26.70
2022-12-18T17:16:06.467Z,26.80
2022-12-18T17:18:35.471Z,26.35
2022-12-18T17:21:04.769Z,26.45
2022-12-18T17:23:43.182Z,25.75
2022-12-18T17:26:14.464Z,26.48
2022-12-18T17:28:45.481Z,27.00
2022-12-18T17:31:15.120Z,28.00
2022-12-18T17:33:43.099Z,25.63
2022-12-18T17:36:16.006Z,30.65
2022-12-18T17:38:52.222Z,33.78
2022-12-18T17:41:20.017Z,29.30
2022-12-18T17:43:54.395Z,26.63
2022-12-18T17:46:22.674Z,30.25
2022-12-18T17:48:50.895Z,30.73
2022-12-18T17:51:21.961Z,32.53
2022-12-18T17:53:53.788Z,31.77
2022-12-18T17:56:25.850Z,33.05
2022-12-18T17:58:55.699Z,31.43
2022-12-18T18:01:25.620Z,27.48
2022-12-18T18:03:56.010Z,34.00
2022-12-18T18:06:24.979Z,31.77
2022-12-18T18:08:54.962Z,33.15
2022-12-18T18:11:42.711Z,31.27
2022-12-18T18:14:15.107Z,29.25
2022-12-18T18:16:47.687Z,28.02
2022-12-18T18:19:17.241Z,27.42
2022-12-18T18:21:52.635Z,26.50
2022-12-18T18:24:27.632Z,29.27
2022-12-18T18:26:55.636Z,26.58
2022-12-18T18:29:34.308Z,28.35
2022-12-18T18:32:02.616Z,26.30
2022-12-18T18:34:33.358Z,30.85
2022-12-18T18:37:01.127Z,32.83
2022-12-18T18:39:31.777Z,30.20
2022-12-18T18:42:01.347Z,31.65
2022-12-18T18:44:32.436Z,29.92
2022-12-18T18:47:00.867Z,32.15
2022-12-18T18:49:33.301Z,31.02
2022-12-18T18:52:02.692Z,32.03
2022-12-18T18:54:31.974Z,29.33
2022-12-18T18:59:51.908Z,32.13
2022-12-18T19:02:19.672Z,33.25
2022-12-18T19:04:47.726Z,29.50
2022-12-18T19:07:29.935Z,31.40
2022-12-18T19:12:48.875Z,29.60
2022-12-18T19:15:16.534Z,28.92
2022-12-18T19:17:44.815Z,31.45
2022-12-18T19:20:15.149Z,28.98
2022-12-18T19:22:43.226Z,30.00
2022-12-18T19:25:13.938Z,28.20
2022-12-18T19:27:41.610Z,31.70
2022-12-18T19:30:11.012Z,34.90
2022-12-18T19:32:42.271Z,30.98
2022-12-18T19:35:11.189Z,28.92
2022-12-18T19:37:39.950Z,31.85
2022-12-18T19:40:12.579Z,32.50
2022-12-18T19:42:41.846Z,33.28
2022-12-18T19:45:10.255Z,32.28
2022-12-18T19:47:38.033Z,31.05
2022-12-18T19:50:06.605Z,31.08
2022-12-18T19:52:34.391Z,30.67
2022-12-18T19:55:02.178Z,33.65
2022-12-18T19:57:30.570Z,31.92
2022-12-18T19:59:59.706Z,31.75
2022-12-18T20:02:27.726Z,32.53
2022-12-18T20:04:56.570Z,30.50
2022-12-18T20:07:24.490Z,30.83
2022-12-18T20:09:59.551Z,31.55
2022-12-18T20:12:31.827Z,31.27
2022-12-18T20:15:01.148Z,31.48
2022-12-18T20:17:28.768Z,33.83
2022-12-18T20:19:57.403Z,32.08
2022-12-18T20:22:25.526Z,33.05
2022-12-18T20:24:53.378Z,32.63
2022-12-18T20:27:24.356Z,32.70
2022-12-18T20:29:54.593Z,31.45
2022-12-18T20:32:26.482Z,31.17
2022-12-18T20:34:56.452Z,32.40
2022-12-18T20:37:24.294Z,32.85
2022-12-18T20:39:53.180Z,33.30
2022-12-18T20:42:21.947Z,30.17
2022-12-18T20:44:51.721Z,34.58
2022-12-18T20:47:19.707Z,33.88
2022-12-18T20:49:51.874Z,30.73
2022-12-18T20:52:19.522Z,30.88
2022-12-18T20:54:49.248Z,30.52
2022-12-18T20:57:16.887Z,29.77
2022-12-18T20:59:48.136Z,30.42
2022-12-18T21:02:16.759Z,31.83
2022-12-18T21:04:46.256Z,31.15
2022-12-18T21:07:15.235Z,30.55
2022-12-18T21:09:42.891Z,30.10
2022-12-18T21:12:33.417Z,32.42
2022-12-18T21:15:03.560Z,28.88
2022-12-18T21:17:32.705Z,31.02
2022-12-18T21:20:08.591Z,32.05
2022-12-18T21:22:37.986Z,49.13
2022-12-18T21:25:06.649Z,33.90
2022-12-18T21:27:34.616Z,30.88
2022-12-18T21:30:02.407Z,31.73
2022-12-18T21:32:33.387Z,31.30
2022-12-18T21:35:01.335Z,34.20
2022-12-18T21:37:29.007Z,32.72
2022-12-18T21:39:57.994Z,34.03
2022-12-18T21:42:43.484Z,31.70
2022-12-18T21:45:12.081Z,33.25
2022-12-18T21:47:39.752Z,31.48
2022-12-18T21:50:11.255Z,31.13
2022-12-18T21:52:39.708Z,32.92
2022-12-18T21:55:11.865Z,32.30
2022-12-18T21:57:39.995Z,32.38
2022-12-18T22:00:18.938Z,32.25
2022-12-18T22:02:52.485Z,32.97
2022-12-18T22:05:36.042Z,31.00
2022-12-18T22:08:03.724Z,31.27
2022-12-18T22:10:34.834Z,32.10
2022-12-18T22:13:04.287Z,31.45
2022-12-18T22:15:32.127Z,31.15
2022-12-18T22:18:00.542Z,28.98
2022-12-18T22:20:29.694Z,28.30
2022-12-18T22:22:58.007Z,38.15
2022-12-18T22:25:25.966Z,30.42
2022-12-18T22:28:12.443Z,33.25
2022-12-18T22:30:40.483Z,30.25
2022-12-18T22:33:10.501Z,31.55
2022-12-18T22:35:38.256Z,30.23
2022-12-18T22:38:09.741Z,29.80
2022-12-18T22:40:37.463Z,29.83
2022-12-18T22:43:06.464Z,28.42
2022-12-18T22:45:34.162Z,29.75
2022-12-18T22:48:06.794Z,26.63
2022-12-18T22:50:34.539Z,27.17
2022-12-18T22:53:02.234Z,27.63
2022-12-18T22:55:29.910Z,30.20
2022-12-18T22:57:57.572Z,29.05
2022-12-18T23:00:27.051Z,29.27
2022-12-18T23:03:00.331Z,27.98
2022-12-18T23:05:30.595Z,29.25
2022-12-18T23:07:58.744Z,27.80
2022-12-18T23:10:28.375Z,28.77
2022-12-18T23:12:56.092Z,28.67
2022-12-18T23:15:27.714Z,27.95
2022-12-18T23:17:58.855Z,28.77
2022-12-18T23:20:27.928Z,29.42
2022-12-18T23:22:55.690Z,28.77
2022-12-18T23:25:23.331Z,29.08
2022-12-18T23:27:51.022Z,28.75
2022-12-18T23:30:18.873Z,29.33
2022-12-18T23:32:46.554Z,29.45
2022-12-18T23:35:16.117Z,29.55
2022-12-18T23:38:00.077Z,30.27
2022-12-18T23:40:29.394Z,29.05
2022-12-18T23:42:59.985Z,28.95
2022-12-18T23:45:27.880Z,27.13
2022-12-18T23:47:55.539Z,28.50
2022-12-18T23:50:29.516Z,28.45
2022-12-18T23:53:04.886Z,28.30
2022-12-18T23:55:38.490Z,28.38
2022-12-18T23:58:06.253Z,27.65
